This is the latest recevied weather packets stored in our database for station/object KD2RHT-13. If no packets are shown the sender has not sent any weather packets the latest 10 day(s).
| Time | Temp. | Humidity | Pressure | Rain* | Wind** | Luminosity | Snow |
|---|---|---|---|---|---|---|---|
| 1778015048 | 18.89° C | 72% | 1006.7 hPa | 0 mm | - | 19 W/m² | - |
| 1778014744 | 19.44° C | 70% | 1007 hPa | 0 mm | - | 44 W/m² | - |
| 1778014443 | 20° C | 68% | 1007 hPa | 0 mm | - | 31 W/m² | - |
| 1778014139 | 20.56° C | 68% | 1006.7 hPa | 0 mm | - | 18 W/m² | - |
| 1778013837 | 21.67° C | 65% | 1006.7 hPa | 0 mm | - | 46 W/m² | - |
| 1778013534 | 22.78° C | 63% | 1006 hPa | 0 mm | - | 93 W/m² | - |
| 1778013230 | 23.33° C | 65% | 1006 hPa | 0 mm | - | 167 W/m² | - |
| 1778012927 | 22.78° C | 67% | 1006 hPa | 0 mm | - | 264 W/m² | - |
| 1778012623 | 22.78° C | 66% | 1006 hPa | 0 mm | - | 177 W/m² | - |
| 1778012320 | 22.78° C | 65% | 1006 hPa | 0 mm | - | 170 W/m² | - |
| 1778012017 | 22.78° C | 66% | 1006.3 hPa | 0 mm | - | 187 W/m² | - |
| 1778011716 | 22.78° C | 67% | 1006.3 hPa | 0 mm | - | 196 W/m² | - |
| 1778011412 | 23.33° C | 66% | 1006.3 hPa | 0 mm | - | 178 W/m² | - |
| 1778011108 | 23.89° C | 64% | 1006.3 hPa | 0 mm | - | 468 W/m² | - |
| 1778010805 | 23.33° C | 67% | 1006.3 hPa | 0 mm | - | 530 W/m² | - |
| 1778010502 | 23.33° C | 67% | 1006.3 hPa | 0 mm | - | 321 W/m² | - |
| 1778010199 | 22.78° C | 67% | 1006.3 hPa | 0 mm | - | 580 W/m² | - |
| 1778009894 | 22.78° C | 69% | 1006.3 hPa | 0 mm | - | 211 W/m² | - |
| 1778009593 | 22.78° C | 69% | 1006.7 hPa | 0 mm | - | 283 W/m² | - |
| 1778009290 | 22.78° C | 68% | 1006 hPa | 0 mm | - | 594 W/m² | - |
| 1778008988 | 22.22° C | 70% | 1006.7 hPa | 0 mm | - | 593 W/m² | - |
| 1778008686 | 22.22° C | 69% | 1006.7 hPa | 0 mm | - | 632 W/m² | - |
| 1778008384 | 21.67° C | 70% | 1006.3 hPa | 0 mm | - | 603 W/m² | - |
| 1778008080 | 21.67° C | 71% | 1006.3 hPa | 0 mm | - | 608 W/m² | - |
| 1778007775 | 21.67° C | 71% | 1006.3 hPa | 0 mm | - | 655 W/m² | - |
* Rain latest hour (hover to see other rain measurements)
** Current wind speed in m/s (hover to see current wind gust speed)